Search for airport 
image banner adimage banner ad
image banner ad

SVHC - Caribe

Located in Maiquetia, Venezuela

ICAO - SVHC, IATA -

Data provided by Airmate  

General information

Coordinates: N10°35'55" W66°59'48"
Elevation is 138 feet MSL.
 
Rated:
View ratings: [VIEW]


View others Airports in Zulia

Operational data

Open for public use
Current time UTC:
Current local time:
METAR: SVMI 062102Z AUTO 29006KT NCD ///// Q1012
TAF: TAF SVMI 061600Z 0612/0712 05009KT 9999 SCT016 TX34/0618Z TN24/0508Z BECMG 0612/0616 11005KT 9000 -DZ BKN016
View NOTAMs / SUP AIP / TFR affecting this airport [VIEW]
Communications frequencies: [VIEW]

Runways:

Airport contact information

Address: Maiquetia Venezuela

Satellite view of SVHC